sensor_id;sensor_type;location;lat;lon;timestamp;temperature;humidity
2002;DHT22;1003;48.002;7.788;2023-05-31T00:00:02;13.70;99.90
2002;DHT22;1003;48.002;7.788;2023-05-31T00:02:30;13.80;99.90
2002;DHT22;1003;48.002;7.788;2023-05-31T00:04:57;13.70;99.90
2002;DHT22;1003;48.002;7.788;2023-05-31T00:07:26;13.70;99.90
2002;DHT22;1003;48.002;7.788;2023-05-31T00:09:53;13.60;99.90
2002;DHT22;1003;48.002;7.788;2023-05-31T00:12:20;13.60;99.90
2002;DHT22;1003;48.002;7.788;2023-05-31T00:14:47;13.50;99.90
2002;DHT22;1003;48.002;7.788;2023-05-31T00:17:15;13.60;99.90
2002;DHT22;1003;48.002;7.788;2023-05-31T00:19:42;13.60;99.90
2002;DHT22;1003;48.002;7.788;2023-05-31T00:22:09;13.60;99.90
2002;DHT22;1003;48.002;7.788;2023-05-31T00:24:37;13.80;99.90
2002;DHT22;1003;48.002;7.788;2023-05-31T00:27:05;13.80;99.90
2002;DHT22;1003;48.002;7.788;2023-05-31T00:29:33;13.70;99.90
2002;DHT22;1003;48.002;7.788;2023-05-31T00:32:00;13.60;99.90
2002;DHT22;1003;48.002;7.788;2023-05-31T00:34:27;13.70;99.90
2002;DHT22;1003;48.002;7.788;2023-05-31T00:36:54;13.80;99.90
2002;DHT22;1003;48.002;7.788;2023-05-31T00:39:21;13.80;99.90
2002;DHT22;1003;48.002;7.788;2023-05-31T00:41:49;13.70;99.90
2002;DHT22;1003;48.002;7.788;2023-05-31T00:44:16;13.70;99.90
2002;DHT22;1003;48.002;7.788;2023-05-31T00:46:43;13.60;99.90
2002;DHT22;1003;48.002;7.788;2023-05-31T00:49:11;13.50;99.90
2002;DHT22;1003;48.002;7.788;2023-05-31T00:51:38;13.50;99.90
2002;DHT22;1003;48.002;7.788;2023-05-31T00:54:05;13.50;99.90
2002;DHT22;1003;48.002;7.788;2023-05-31T00:56:33;13.60;99.90
2002;DHT22;1003;48.002;7.788;2023-05-31T00:59:02;13.70;99.90
2002;DHT22;1003;48.002;7.788;2023-05-31T01:01:29;13.70;99.90
2002;DHT22;1003;48.002;7.788;2023-05-31T01:03:58;13.70;99.90
2002;DHT22;1003;48.002;7.788;2023-05-31T01:06:27;13.70;99.90
2002;DHT22;1003;48.002;7.788;2023-05-31T01:08:59;13.70;99.90
2002;DHT22;1003;48.002;7.788;2023-05-31T01:11:37;13.60;99.90
2002;DHT22;1003;48.002;7.788;2023-05-31T01:14:27;13.60;99.90
2002;DHT22;1003;48.002;7.788;2023-05-31T01:17:09;13.80;99.90
2002;DHT22;1003;48.002;7.788;2023-05-31T01:19:45;13.90;99.90
2002;DHT22;1003;48.002;7.788;2023-05-31T01:22:22;14.00;99.90
2002;DHT22;1003;48.002;7.788;2023-05-31T01:25:04;14.00;99.90
2002;DHT22;1003;48.002;7.788;2023-05-31T01:27:42;14.10;99.90
2002;DHT22;1003;48.002;7.788;2023-05-31T01:30:13;14.10;99.90
2002;DHT22;1003;48.002;7.788;2023-05-31T01:32:44;14.10;99.90
2002;DHT22;1003;48.002;7.788;2023-05-31T01:35:12;14.00;99.90
2002;DHT22;1003;48.002;7.788;2023-05-31T01:37:40;14.00;99.90
2002;DHT22;1003;48.002;7.788;2023-05-31T01:40:08;14.10;99.90
2002;DHT22;1003;48.002;7.788;2023-05-31T01:42:37;14.10;99.90
2002;DHT22;1003;48.002;7.788;2023-05-31T01:45:06;14.20;99.90
2002;DHT22;1003;48.002;7.788;2023-05-31T01:47:35;14.20;99.90
2002;DHT22;1003;48.002;7.788;2023-05-31T01:50:05;14.20;99.90
2002;DHT22;1003;48.002;7.788;2023-05-31T01:52:34;14.20;99.90
2002;DHT22;1003;48.002;7.788;2023-05-31T01:55:01;14.10;99.90
2002;DHT22;1003;48.002;7.788;2023-05-31T01:57:29;14.00;99.90
2002;DHT22;1003;48.002;7.788;2023-05-31T01:59:59;13.90;99.90
2002;DHT22;1003;48.002;7.788;2023-05-31T02:02:31;13.80;99.90
2002;DHT22;1003;48.002;7.788;2023-05-31T02:05:06;13.80;99.90
2002;DHT22;1003;48.002;7.788;2023-05-31T02:07:34;13.80;99.90
2002;DHT22;1003;48.002;7.788;2023-05-31T02:10:02;13.70;99.90
2002;DHT22;1003;48.002;7.788;2023-05-31T02:12:29;13.70;99.90
2002;DHT22;1003;48.002;7.788;2023-05-31T02:14:56;13.80;99.90
2002;DHT22;1003;48.002;7.788;2023-05-31T02:17:23;13.80;99.90
2002;DHT22;1003;48.002;7.788;2023-05-31T02:19:52;13.90;99.90
2002;DHT22;1003;48.002;7.788;2023-05-31T02:22:20;13.90;99.90
2002;DHT22;1003;48.002;7.788;2023-05-31T02:24:47;13.90;99.90
2002;DHT22;1003;48.002;7.788;2023-05-31T02:27:15;13.80;99.90
2002;DHT22;1003;48.002;7.788;2023-05-31T02:29:44;13.80;99.90
2002;DHT22;1003;48.002;7.788;2023-05-31T02:32:12;13.80;99.90
2002;DHT22;1003;48.002;7.788;2023-05-31T02:34:39;13.80;99.90
2002;DHT22;1003;48.002;7.788;2023-05-31T02:37:09;13.70;99.90
2002;DHT22;1003;48.002;7.788;2023-05-31T02:39:36;13.60;99.90
2002;DHT22;1003;48.002;7.788;2023-05-31T02:42:03;13.60;99.90
2002;DHT22;1003;48.002;7.788;2023-05-31T02:44:31;13.60;99.90
2002;DHT22;1003;48.002;7.788;2023-05-31T02:46:58;13.50;99.90
2002;DHT22;1003;48.002;7.788;2023-05-31T02:49:25;13.40;99.90
2002;DHT22;1003;48.002;7.788;2023-05-31T02:51:52;13.30;99.90
2002;DHT22;1003;48.002;7.788;2023-05-31T02:54:20;13.30;99.90
2002;DHT22;1003;48.002;7.788;2023-05-31T02:56:48;13.30;99.90
2002;DHT22;1003;48.002;7.788;2023-05-31T02:59:14;13.20;99.90
2002;DHT22;1003;48.002;7.788;2023-05-31T03:01:41;13.20;99.90
2002;DHT22;1003;48.002;7.788;2023-05-31T03:04:09;13.10;99.90
2002;DHT22;1003;48.002;7.788;2023-05-31T03:06:36;13.00;99.90
2002;DHT22;1003;48.002;7.788;2023-05-31T03:09:05;13.00;99.90
2002;DHT22;1003;48.002;7.788;2023-05-31T03:11:34;13.00;99.90
2002;DHT22;1003;48.002;7.788;2023-05-31T03:14:01;13.00;99.90
2002;DHT22;1003;48.002;7.788;2023-05-31T03:16:28;12.90;99.90
2002;DHT22;1003;48.002;7.788;2023-05-31T03:18:56;12.90;99.90
2002;DHT22;1003;48.002;7.788;2023-05-31T03:21:23;12.90;99.90
2002;DHT22;1003;48.002;7.788;2023-05-31T03:23:51;12.90;99.90
2002;DHT22;1003;48.002;7.788;2023-05-31T03:26:18;12.90;99.90
2002;DHT22;1003;48.002;7.788;2023-05-31T03:28:46;12.90;99.90
2002;DHT22;1003;48.002;7.788;2023-05-31T03:31:13;12.80;99.90
2002;DHT22;1003;48.002;7.788;2023-05-31T03:33:40;12.70;99.90
2002;DHT22;1003;48.002;7.788;2023-05-31T03:36:08;12.70;99.90
2002;DHT22;1003;48.002;7.788;2023-05-31T03:38:35;12.60;99.90
2002;DHT22;1003;48.002;7.788;2023-05-31T03:41:02;12.60;99.90
2002;DHT22;1003;48.002;7.788;2023-05-31T03:43:29;12.60;99.90
2002;DHT22;1003;48.002;7.788;2023-05-31T03:45:58;12.60;99.90
2002;DHT22;1003;48.002;7.788;2023-05-31T03:48:26;12.60;99.90
2002;DHT22;1003;48.002;7.788;2023-05-31T03:50:53;12.60;99.90
2002;DHT22;1003;48.002;7.788;2023-05-31T03:53:20;12.60;99.90
2002;DHT22;1003;48.002;7.788;2023-05-31T03:55:47;12.50;99.90
2002;DHT22;1003;48.002;7.788;2023-05-31T03:58:15;12.60;99.90
2002;DHT22;1003;48.002;7.788;2023-05-31T04:00:42;12.60;99.90
2002;DHT22;1003;48.002;7.788;2023-05-31T04:03:10;12.60;99.90
2002;DHT22;1003;48.002;7.788;2023-05-31T04:05:37;12.60;99.90
2002;DHT22;1003;48.002;7.788;2023-05-31T04:08:04;12.60;99.90
2002;DHT22;1003;48.002;7.788;2023-05-31T04:10:32;12.60;99.90
2002;DHT22;1003;48.002;7.788;2023-05-31T04:13:00;12.70;99.90
2002;DHT22;1003;48.002;7.788;2023-05-31T04:15:27;12.60;99.90
2002;DHT22;1003;48.002;7.788;2023-05-31T04:17:54;12.60;99.90
2002;DHT22;1003;48.002;7.788;2023-05-31T04:20:23;12.70;99.90
2002;DHT22;1003;48.002;7.788;2023-05-31T04:22:50;12.70;99.90
2002;DHT22;1003;48.002;7.788;2023-05-31T04:25:18;12.80;99.90
2002;DHT22;1003;48.002;7.788;2023-05-31T04:27:46;12.90;99.90
2002;DHT22;1003;48.002;7.788;2023-05-31T04:30:15;12.90;99.90
2002;DHT22;1003;48.002;7.788;2023-05-31T04:32:42;13.00;99.90
2002;DHT22;1003;48.002;7.788;2023-05-31T04:35:09;13.10;99.90
2002;DHT22;1003;48.002;7.788;2023-05-31T04:37:38;13.30;99.90
2002;DHT22;1003;48.002;7.788;2023-05-31T04:40:06;13.30;99.90
2002;DHT22;1003;48.002;7.788;2023-05-31T04:42:35;13.40;99.90
2002;DHT22;1003;48.002;7.788;2023-05-31T04:45:04;13.80;99.90
2002;DHT22;1003;48.002;7.788;2023-05-31T04:47:32;14.40;99.90
2002;DHT22;1003;48.002;7.788;2023-05-31T04:50:00;15.10;99.90
2002;DHT22;1003;48.002;7.788;2023-05-31T04:52:27;15.80;99.90
2002;DHT22;1003;48.002;7.788;2023-05-31T04:54:58;16.30;99.90
2002;DHT22;1003;48.002;7.788;2023-05-31T04:57:28;17.00;99.90
2002;DHT22;1003;48.002;7.788;2023-05-31T04:59:55;17.30;99.90
2002;DHT22;1003;48.002;7.788;2023-05-31T05:02:22;17.50;99.90
2002;DHT22;1003;48.002;7.788;2023-05-31T05:04:49;17.60;99.90
2002;DHT22;1003;48.002;7.788;2023-05-31T05:07:16;17.60;99.90
2002;DHT22;1003;48.002;7.788;2023-05-31T05:09:43;17.80;99.90
2002;DHT22;1003;48.002;7.788;2023-05-31T05:12:13;18.20;99.90
2002;DHT22;1003;48.002;7.788;2023-05-31T05:14:40;18.30;99.90
2002;DHT22;1003;48.002;7.788;2023-05-31T05:17:07;18.50;99.90
2002;DHT22;1003;48.002;7.788;2023-05-31T05:19:34;18.40;99.90
2002;DHT22;1003;48.002;7.788;2023-05-31T05:22:01;18.50;99.90
2002;DHT22;1003;48.002;7.788;2023-05-31T05:24:28;18.50;99.90
2002;DHT22;1003;48.002;7.788;2023-05-31T05:26:55;18.50;99.90
2002;DHT22;1003;48.002;7.788;2023-05-31T05:29:24;18.70;99.90
2002;DHT22;1003;48.002;7.788;2023-05-31T05:31:51;18.90;99.90
2002;DHT22;1003;48.002;7.788;2023-05-31T05:34:18;18.90;99.90
2002;DHT22;1003;48.002;7.788;2023-05-31T05:36:46;19.00;99.90
2002;DHT22;1003;48.002;7.788;2023-05-31T05:39:13;19.20;99.90
2002;DHT22;1003;48.002;7.788;2023-05-31T05:41:40;19.20;99.90
2002;DHT22;1003;48.002;7.788;2023-05-31T05:44:07;19.30;99.90
2002;DHT22;1003;48.002;7.788;2023-05-31T05:46:36;19.30;99.90
2002;DHT22;1003;48.002;7.788;2023-05-31T05:49:03;19.50;99.90
2002;DHT22;1003;48.002;7.788;2023-05-31T05:51:31;19.70;99.90
2002;DHT22;1003;48.002;7.788;2023-05-31T05:53:58;19.80;99.90
2002;DHT22;1003;48.002;7.788;2023-05-31T05:56:25;19.80;99.90
2002;DHT22;1003;48.002;7.788;2023-05-31T05:58:52;19.80;99.90
2002;DHT22;1003;48.002;7.788;2023-05-31T06:01:19;19.80;99.90
2002;DHT22;1003;48.002;7.788;2023-05-31T06:03:49;19.90;99.90
2002;DHT22;1003;48.002;7.788;2023-05-31T06:06:17;19.90;99.90
2002;DHT22;1003;48.002;7.788;2023-05-31T06:08:45;20.10;99.90
2002;DHT22;1003;48.002;7.788;2023-05-31T06:11:13;20.00;99.90
2002;DHT22;1003;48.002;7.788;2023-05-31T06:13:42;20.10;99.90
2002;DHT22;1003;48.002;7.788;2023-05-31T06:16:09;20.10;99.90
2002;DHT22;1003;48.002;7.788;2023-05-31T06:18:36;20.40;99.90
2002;DHT22;1003;48.002;7.788;2023-05-31T06:21:05;20.40;99.90
2002;DHT22;1003;48.002;7.788;2023-05-31T06:23:32;20.70;99.90
2002;DHT22;1003;48.002;7.788;2023-05-31T06:25:59;20.80;99.90
2002;DHT22;1003;48.002;7.788;2023-05-31T06:28:27;20.70;99.90
2002;DHT22;1003;48.002;7.788;2023-05-31T06:30:54;20.80;99.90
2002;DHT22;1003;48.002;7.788;2023-05-31T06:33:22;20.90;99.90
2002;DHT22;1003;48.002;7.788;2023-05-31T06:35:49;20.90;99.90
2002;DHT22;1003;48.002;7.788;2023-05-31T06:38:17;21.00;99.90
2002;DHT22;1003;48.002;7.788;2023-05-31T06:40:47;20.90;99.90
2002;DHT22;1003;48.002;7.788;2023-05-31T06:43:14;21.00;99.90
2002;DHT22;1003;48.002;7.788;2023-05-31T06:45:42;21.10;99.90
2002;DHT22;1003;48.002;7.788;2023-05-31T06:48:09;20.90;99.90
2002;DHT22;1003;48.002;7.788;2023-05-31T06:50:36;20.90;99.90
2002;DHT22;1003;48.002;7.788;2023-05-31T06:53:03;20.90;99.90
2002;DHT22;1003;48.002;7.788;2023-05-31T06:55:32;21.10;99.90
2002;DHT22;1003;48.002;7.788;2023-05-31T06:57:59;20.80;99.90
2002;DHT22;1003;48.002;7.788;2023-05-31T07:00:27;20.70;99.90
2002;DHT22;1003;48.002;7.788;2023-05-31T07:02:54;20.90;99.90
2002;DHT22;1003;48.002;7.788;2023-05-31T07:05:21;21.00;99.90
2002;DHT22;1003;48.002;7.788;2023-05-31T07:07:48;21.10;99.90
2002;DHT22;1003;48.002;7.788;2023-05-31T07:10:15;21.40;99.90
2002;DHT22;1003;48.002;7.788;2023-05-31T07:12:44;21.70;99.90
2002;DHT22;1003;48.002;7.788;2023-05-31T07:15:11;21.70;99.90
2002;DHT22;1003;48.002;7.788;2023-05-31T07:17:38;21.80;99.90
2002;DHT22;1003;48.002;7.788;2023-05-31T07:20:06;21.60;99.90
2002;DHT22;1003;48.002;7.788;2023-05-31T07:22:34;21.70;99.90
2002;DHT22;1003;48.002;7.788;2023-05-31T07:25:01;21.90;99.90
2002;DHT22;1003;48.002;7.788;2023-05-31T07:27:29;21.70;99.90
2002;DHT22;1003;48.002;7.788;2023-05-31T07:29:57;21.80;99.90
2002;DHT22;1003;48.002;7.788;2023-05-31T07:32:25;21.80;99.90
2002;DHT22;1003;48.002;7.788;2023-05-31T07:34:52;22.00;99.90
2002;DHT22;1003;48.002;7.788;2023-05-31T07:37:19;22.10;99.90
2002;DHT22;1003;48.002;7.788;2023-05-31T07:39:46;22.10;99.90
2002;DHT22;1003;48.002;7.788;2023-05-31T07:42:13;21.90;99.90
2002;DHT22;1003;48.002;7.788;2023-05-31T07:44:40;22.00;99.90
2002;DHT22;1003;48.002;7.788;2023-05-31T07:47:08;22.20;99.90
2002;DHT22;1003;48.002;7.788;2023-05-31T07:49:35;22.20;99.90
2002;DHT22;1003;48.002;7.788;2023-05-31T07:52:02;22.10;99.90
2002;DHT22;1003;48.002;7.788;2023-05-31T07:54:30;22.20;99.90
2002;DHT22;1003;48.002;7.788;2023-05-31T07:56:57;22.20;99.90
2002;DHT22;1003;48.002;7.788;2023-05-31T07:59:24;22.40;99.90
2002;DHT22;1003;48.002;7.788;2023-05-31T08:01:51;22.40;99.90
2002;DHT22;1003;48.002;7.788;2023-05-31T08:04:20;22.30;99.90
2002;DHT22;1003;48.002;7.788;2023-05-31T08:06:47;22.30;99.90
2002;DHT22;1003;48.002;7.788;2023-05-31T08:09:15;22.50;99.90
2002;DHT22;1003;48.002;7.788;2023-05-31T08:11:43;22.70;99.90
2002;DHT22;1003;48.002;7.788;2023-05-31T08:14:10;22.50;99.90
2002;DHT22;1003;48.002;7.788;2023-05-31T08:16:37;22.50;99.90
2002;DHT22;1003;48.002;7.788;2023-05-31T08:19:05;22.50;99.90
2002;DHT22;1003;48.002;7.788;2023-05-31T08:21:33;22.50;99.90
2002;DHT22;1003;48.002;7.788;2023-05-31T08:24:02;22.30;99.90
2002;DHT22;1003;48.002;7.788;2023-05-31T08:26:31;22.30;99.90
2002;DHT22;1003;48.002;7.788;2023-05-31T08:28:58;22.40;99.90
2002;DHT22;1003;48.002;7.788;2023-05-31T08:31:25;22.50;99.90
2002;DHT22;1003;48.002;7.788;2023-05-31T08:33:53;22.50;99.90
2002;DHT22;1003;48.002;7.788;2023-05-31T08:36:21;22.40;99.90
2002;DHT22;1003;48.002;7.788;2023-05-31T08:38:50;22.30;99.90
2002;DHT22;1003;48.002;7.788;2023-05-31T08:41:18;22.30;99.90
2002;DHT22;1003;48.002;7.788;2023-05-31T08:43:46;22.30;99.90
2002;DHT22;1003;48.002;7.788;2023-05-31T08:46:14;22.60;99.90
2002;DHT22;1003;48.002;7.788;2023-05-31T08:48:45;22.60;99.90
2002;DHT22;1003;48.002;7.788;2023-05-31T08:51:20;22.60;99.90
2002;DHT22;1003;48.002;7.788;2023-05-31T08:53:52;22.40;99.90
2002;DHT22;1003;48.002;7.788;2023-05-31T08:56:24;22.40;99.90
2002;DHT22;1003;48.002;7.788;2023-05-31T08:58:53;22.30;99.90
2002;DHT22;1003;48.002;7.788;2023-05-31T09:01:22;22.30;99.90
2002;DHT22;1003;48.002;7.788;2023-05-31T09:03:53;22.40;99.90
2002;DHT22;1003;48.002;7.788;2023-05-31T09:06:20;22.50;99.90
2002;DHT22;1003;48.002;7.788;2023-05-31T09:08:47;22.40;99.90
2002;DHT22;1003;48.002;7.788;2023-05-31T09:11:16;22.30;99.90
2002;DHT22;1003;48.002;7.788;2023-05-31T09:13:43;22.40;99.90
2002;DHT22;1003;48.002;7.788;2023-05-31T09:16:10;22.40;99.90
2002;DHT22;1003;48.002;7.788;2023-05-31T09:18:39;22.40;99.90
2002;DHT22;1003;48.002;7.788;2023-05-31T09:21:10;22.40;99.90
2002;DHT22;1003;48.002;7.788;2023-05-31T09:23:38;22.60;99.90
2002;DHT22;1003;48.002;7.788;2023-05-31T09:26:19;22.60;99.90
2002;DHT22;1003;48.002;7.788;2023-05-31T09:28:48;22.70;99.90
2002;DHT22;1003;48.002;7.788;2023-05-31T09:31:15;22.70;99.90
2002;DHT22;1003;48.002;7.788;2023-05-31T09:33:44;22.70;99.90
2002;DHT22;1003;48.002;7.788;2023-05-31T09:36:13;22.50;99.90
2002;DHT22;1003;48.002;7.788;2023-05-31T09:38:40;22.60;99.90
2002;DHT22;1003;48.002;7.788;2023-05-31T09:41:14;22.60;99.90
2002;DHT22;1003;48.002;7.788;2023-05-31T09:43:45;22.60;99.90
2002;DHT22;1003;48.002;7.788;2023-05-31T09:46:14;22.60;99.90
2002;DHT22;1003;48.002;7.788;2023-05-31T09:48:42;22.70;99.90
2002;DHT22;1003;48.002;7.788;2023-05-31T09:51:11;22.70;99.90
2002;DHT22;1003;48.002;7.788;2023-05-31T09:53:42;22.70;99.90
2002;DHT22;1003;48.002;7.788;2023-05-31T09:56:17;22.90;99.90
2002;DHT22;1003;48.002;7.788;2023-05-31T09:58:46;23.00;99.90
2002;DHT22;1003;48.002;7.788;2023-05-31T10:01:14;23.00;99.90
2002;DHT22;1003;48.002;7.788;2023-05-31T10:03:43;23.20;99.90
2002;DHT22;1003;48.002;7.788;2023-05-31T10:06:11;23.30;99.90
2002;DHT22;1003;48.002;7.788;2023-05-31T10:08:38;23.50;99.90
2002;DHT22;1003;48.002;7.788;2023-05-31T10:11:05;23.50;99.90
2002;DHT22;1003;48.002;7.788;2023-05-31T10:13:35;23.60;99.90
2002;DHT22;1003;48.002;7.788;2023-05-31T10:16:05;23.60;99.90
2002;DHT22;1003;48.002;7.788;2023-05-31T10:18:46;23.70;99.90
2002;DHT22;1003;48.002;7.788;2023-05-31T10:21:18;23.80;99.90
2002;DHT22;1003;48.002;7.788;2023-05-31T10:23:57;23.90;99.90
2002;DHT22;1003;48.002;7.788;2023-05-31T10:26:36;24.20;99.90
2002;DHT22;1003;48.002;7.788;2023-05-31T10:29:13;24.30;99.90
2002;DHT22;1003;48.002;7.788;2023-05-31T10:31:49;24.50;99.90
2002;DHT22;1003;48.002;7.788;2023-05-31T10:34:21;24.70;99.90
2002;DHT22;1003;48.002;7.788;2023-05-31T10:36:50;24.70;99.90
2002;DHT22;1003;48.002;7.788;2023-05-31T10:39:24;24.60;99.90
2002;DHT22;1003;48.002;7.788;2023-05-31T10:42:02;24.80;99.90
2002;DHT22;1003;48.002;7.788;2023-05-31T10:44:38;24.80;99.90
2002;DHT22;1003;48.002;7.788;2023-05-31T10:47:15;24.90;99.90
2002;DHT22;1003;48.002;7.788;2023-05-31T10:49:49;24.90;99.90
2002;DHT22;1003;48.002;7.788;2023-05-31T10:52:19;25.10;99.90
2002;DHT22;1003;48.002;7.788;2023-05-31T10:54:46;25.10;99.90
2002;DHT22;1003;48.002;7.788;2023-05-31T10:57:15;25.00;99.90
2002;DHT22;1003;48.002;7.788;2023-05-31T10:59:44;25.10;99.90
2002;DHT22;1003;48.002;7.788;2023-05-31T11:02:16;25.10;99.90
2002;DHT22;1003;48.002;7.788;2023-05-31T11:04:43;25.00;99.90
2002;DHT22;1003;48.002;7.788;2023-05-31T11:07:12;25.20;99.90
2002;DHT22;1003;48.002;7.788;2023-05-31T11:09:49;25.40;99.90
2002;DHT22;1003;48.002;7.788;2023-05-31T11:12:31;25.30;99.90
2002;DHT22;1003;48.002;7.788;2023-05-31T11:15:00;25.10;99.90
2002;DHT22;1003;48.002;7.788;2023-05-31T11:17:39;25.10;99.90
2002;DHT22;1003;48.002;7.788;2023-05-31T11:20:16;25.10;99.90
2002;DHT22;1003;48.002;7.788;2023-05-31T11:22:46;25.20;99.90
2002;DHT22;1003;48.002;7.788;2023-05-31T11:25:20;25.10;99.90
2002;DHT22;1003;48.002;7.788;2023-05-31T11:27:47;25.20;99.90
2002;DHT22;1003;48.002;7.788;2023-05-31T11:30:15;25.30;99.90
2002;DHT22;1003;48.002;7.788;2023-05-31T11:33:14;25.30;99.90
2002;DHT22;1003;48.002;7.788;2023-05-31T11:35:41;25.40;99.90
2002;DHT22;1003;48.002;7.788;2023-05-31T11:38:09;25.50;99.90
2002;DHT22;1003;48.002;7.788;2023-05-31T11:40:36;25.70;99.90
2002;DHT22;1003;48.002;7.788;2023-05-31T11:43:10;25.70;99.90
2002;DHT22;1003;48.002;7.788;2023-05-31T11:45:45;25.50;99.90
2002;DHT22;1003;48.002;7.788;2023-05-31T11:48:45;25.60;99.90
2002;DHT22;1003;48.002;7.788;2023-05-31T11:51:13;25.70;99.90
2002;DHT22;1003;48.002;7.788;2023-05-31T11:53:41;25.80;99.80
2002;DHT22;1003;48.002;7.788;2023-05-31T11:56:08;25.90;99.90
2002;DHT22;1003;48.002;7.788;2023-05-31T11:58:38;25.80;99.90
2002;DHT22;1003;48.002;7.788;2023-05-31T12:01:05;25.80;99.90
2002;DHT22;1003;48.002;7.788;2023-05-31T12:03:32;25.90;99.90
2002;DHT22;1003;48.002;7.788;2023-05-31T12:06:00;25.90;99.30
2002;DHT22;1003;48.002;7.788;2023-05-31T12:08:32;25.70;99.30
2002;DHT22;1003;48.002;7.788;2023-05-31T12:11:03;25.70;99.60
2002;DHT22;1003;48.002;7.788;2023-05-31T12:13:30;25.80;99.90
2002;DHT22;1003;48.002;7.788;2023-05-31T12:15:58;25.80;99.90
2002;DHT22;1003;48.002;7.788;2023-05-31T12:18:25;25.80;99.90
2002;DHT22;1003;48.002;7.788;2023-05-31T12:20:52;25.80;99.90
2002;DHT22;1003;48.002;7.788;2023-05-31T12:23:21;26.10;97.10
2002;DHT22;1003;48.002;7.788;2023-05-31T12:25:50;26.10;97.40
2002;DHT22;1003;48.002;7.788;2023-05-31T12:28:18;26.10;98.40
2002;DHT22;1003;48.002;7.788;2023-05-31T12:30:47;26.20;97.20
2002;DHT22;1003;48.002;7.788;2023-05-31T12:33:17;26.30;96.90
2002;DHT22;1003;48.002;7.788;2023-05-31T12:35:46;26.30;97.00
2002;DHT22;1003;48.002;7.788;2023-05-31T12:38:13;26.20;96.20
2002;DHT22;1003;48.002;7.788;2023-05-31T12:40:43;26.10;95.60
2002;DHT22;1003;48.002;7.788;2023-05-31T12:43:11;25.80;95.90
2002;DHT22;1003;48.002;7.788;2023-05-31T12:45:40;25.60;96.10
2002;DHT22;1003;48.002;7.788;2023-05-31T12:48:09;25.50;96.70
2002;DHT22;1003;48.002;7.788;2023-05-31T12:50:43;25.60;95.90
2002;DHT22;1003;48.002;7.788;2023-05-31T12:53:11;25.70;96.80
2002;DHT22;1003;48.002;7.788;2023-05-31T12:55:39;25.80;97.10
2002;DHT22;1003;48.002;7.788;2023-05-31T12:58:08;25.90;96.00
2002;DHT22;1003;48.002;7.788;2023-05-31T13:00:35;26.00;97.00
2002;DHT22;1003;48.002;7.788;2023-05-31T13:03:03;25.70;95.20
2002;DHT22;1003;48.002;7.788;2023-05-31T13:05:32;25.80;95.50
2002;DHT22;1003;48.002;7.788;2023-05-31T13:07:59;25.90;95.20
2002;DHT22;1003;48.002;7.788;2023-05-31T13:10:26;26.10;95.00
2002;DHT22;1003;48.002;7.788;2023-05-31T13:12:53;26.20;95.90
2002;DHT22;1003;48.002;7.788;2023-05-31T13:15:21;26.20;95.60
2002;DHT22;1003;48.002;7.788;2023-05-31T13:17:48;26.20;95.60
2002;DHT22;1003;48.002;7.788;2023-05-31T13:20:17;26.20;95.40
2002;DHT22;1003;48.002;7.788;2023-05-31T13:22:44;26.30;94.60
2002;DHT22;1003;48.002;7.788;2023-05-31T13:25:11;26.40;95.80
2002;DHT22;1003;48.002;7.788;2023-05-31T13:27:38;26.50;94.50
2002;DHT22;1003;48.002;7.788;2023-05-31T13:30:07;26.40;94.10
2002;DHT22;1003;48.002;7.788;2023-05-31T13:32:37;26.40;93.10
2002;DHT22;1003;48.002;7.788;2023-05-31T13:35:05;26.40;94.30
2002;DHT22;1003;48.002;7.788;2023-05-31T13:37:35;26.40;92.70
2002;DHT22;1003;48.002;7.788;2023-05-31T13:40:02;26.40;93.90
2002;DHT22;1003;48.002;7.788;2023-05-31T13:42:30;26.40;95.20
2002;DHT22;1003;48.002;7.788;2023-05-31T13:44:57;26.40;94.30
2002;DHT22;1003;48.002;7.788;2023-05-31T13:47:24;26.30;92.70
2002;DHT22;1003;48.002;7.788;2023-05-31T13:49:52;26.30;93.10
2002;DHT22;1003;48.002;7.788;2023-05-31T13:52:19;26.20;93.00
2002;DHT22;1003;48.002;7.788;2023-05-31T13:54:46;26.30;93.00
2002;DHT22;1003;48.002;7.788;2023-05-31T13:57:13;26.20;92.50
2002;DHT22;1003;48.002;7.788;2023-05-31T13:59:40;26.30;94.20
2002;DHT22;1003;48.002;7.788;2023-05-31T14:02:08;26.40;93.30
2002;DHT22;1003;48.002;7.788;2023-05-31T14:04:35;26.50;92.90
2002;DHT22;1003;48.002;7.788;2023-05-31T14:07:03;26.50;93.80
2002;DHT22;1003;48.002;7.788;2023-05-31T14:09:31;26.40;93.40
2002;DHT22;1003;48.002;7.788;2023-05-31T14:11:58;26.30;92.40
2002;DHT22;1003;48.002;7.788;2023-05-31T14:14:25;26.50;93.10
2002;DHT22;1003;48.002;7.788;2023-05-31T14:16:53;26.50;92.90
2002;DHT22;1003;48.002;7.788;2023-05-31T14:19:20;26.50;92.10
2002;DHT22;1003;48.002;7.788;2023-05-31T14:21:47;26.50;91.80
2002;DHT22;1003;48.002;7.788;2023-05-31T14:24:15;26.50;91.90
2002;DHT22;1003;48.002;7.788;2023-05-31T14:26:42;26.50;91.90
2002;DHT22;1003;48.002;7.788;2023-05-31T14:29:10;26.50;91.50
2002;DHT22;1003;48.002;7.788;2023-05-31T14:31:37;26.50;91.30
2002;DHT22;1003;48.002;7.788;2023-05-31T14:34:04;26.40;91.80
2002;DHT22;1003;48.002;7.788;2023-05-31T14:36:31;26.30;91.90
2002;DHT22;1003;48.002;7.788;2023-05-31T14:38:58;26.40;92.30
2002;DHT22;1003;48.002;7.788;2023-05-31T14:41:26;26.40;92.20
2002;DHT22;1003;48.002;7.788;2023-05-31T14:43:53;26.40;92.60
2002;DHT22;1003;48.002;7.788;2023-05-31T14:46:20;26.50;92.30
2002;DHT22;1003;48.002;7.788;2023-05-31T14:48:48;26.40;91.60
2002;DHT22;1003;48.002;7.788;2023-05-31T14:51:15;26.40;92.00
2002;DHT22;1003;48.002;7.788;2023-05-31T14:53:44;26.30;91.00
2002;DHT22;1003;48.002;7.788;2023-05-31T14:56:11;26.30;91.00
2002;DHT22;1003;48.002;7.788;2023-05-31T14:58:39;26.30;92.10
2002;DHT22;1003;48.002;7.788;2023-05-31T15:01:08;26.30;92.10
2002;DHT22;1003;48.002;7.788;2023-05-31T15:03:35;26.30;91.80
2002;DHT22;1003;48.002;7.788;2023-05-31T15:06:02;26.30;90.80
2002;DHT22;1003;48.002;7.788;2023-05-31T15:08:29;26.30;91.70
2002;DHT22;1003;48.002;7.788;2023-05-31T15:10:56;26.40;91.30
2002;DHT22;1003;48.002;7.788;2023-05-31T15:13:23;26.30;91.20
2002;DHT22;1003;48.002;7.788;2023-05-31T15:15:51;26.40;91.10
2002;DHT22;1003;48.002;7.788;2023-05-31T15:18:18;26.40;90.40
2002;DHT22;1003;48.002;7.788;2023-05-31T15:20:46;26.30;91.10
2002;DHT22;1003;48.002;7.788;2023-05-31T15:23:13;26.30;91.20
2002;DHT22;1003;48.002;7.788;2023-05-31T15:25:40;26.30;90.10
2002;DHT22;1003;48.002;7.788;2023-05-31T15:28:08;26.30;89.00
2002;DHT22;1003;48.002;7.788;2023-05-31T15:30:36;26.30;89.90
2002;DHT22;1003;48.002;7.788;2023-05-31T15:33:05;26.20;90.30
2002;DHT22;1003;48.002;7.788;2023-05-31T15:35:32;26.30;91.60
2002;DHT22;1003;48.002;7.788;2023-05-31T15:38:00;26.30;90.60
2002;DHT22;1003;48.002;7.788;2023-05-31T15:40:27;26.30;90.10
2002;DHT22;1003;48.002;7.788;2023-05-31T15:42:54;26.20;90.20
2002;DHT22;1003;48.002;7.788;2023-05-31T15:45:21;26.20;90.30
2002;DHT22;1003;48.002;7.788;2023-05-31T15:47:48;26.20;88.30
2002;DHT22;1003;48.002;7.788;2023-05-31T15:50:17;26.10;89.30
2002;DHT22;1003;48.002;7.788;2023-05-31T15:52:44;26.10;89.20
2002;DHT22;1003;48.002;7.788;2023-05-31T15:55:12;26.10;90.50
2002;DHT22;1003;48.002;7.788;2023-05-31T15:57:40;26.10;90.80
2002;DHT22;1003;48.002;7.788;2023-05-31T16:00:08;26.10;90.40
2002;DHT22;1003;48.002;7.788;2023-05-31T16:02:35;26.10;90.40
2002;DHT22;1003;48.002;7.788;2023-05-31T16:05:03;26.00;90.40
2002;DHT22;1003;48.002;7.788;2023-05-31T16:07:33;26.00;89.90
2002;DHT22;1003;48.002;7.788;2023-05-31T16:10:00;25.90;90.10